Polebridge, Montana
Current Conditions -  °F | °C
As of 12:55 PM on Thursday 27 Nov 2014 (Local Time) from KGPI Reporting Station
Overcast Overcast  
Wind Chill: 38°   Ceiling: 4000
Heat Index: 42°   Visibility: 10mi
Dew Point: 36°   Wind: 7mph
Humidity: 79%   Direction: 150°SSE
Pressure: 29.85"   Gusts: NA
Location:  48.77°N, 114.29°W
Report Text: KGPI 271955Z 15006KT 10SM OVC040 06/02 A2985 RMK AO2 SLP125 T00560022
Loading
Personal Weather Stations






























Interactive Weather Map New forecast layout! Learn more

10-Day Weather Forecast

Advertisements
Track Severe Weather on mobile